sensor_id;sensor_type;location;lat;lon;timestamp;pressure;altitude;pressure_sealevel;temperature;humidity
12969;BME280;6549;53.128;8.182;2022-07-17T00:01:16;102604.34;;;10.89;100.00
12969;BME280;6549;53.128;8.182;2022-07-17T00:04:18;102606.19;;;10.85;100.00
12969;BME280;6549;53.128;8.182;2022-07-17T00:07:30;102605.63;;;10.79;100.00
12969;BME280;6549;53.128;8.182;2022-07-17T00:10:31;102602.31;;;10.74;100.00
12969;BME280;6549;53.128;8.182;2022-07-17T00:13:31;102600.34;;;10.74;100.00
12969;BME280;6549;53.128;8.182;2022-07-17T00:16:31;102594.03;;;10.62;100.00
12969;BME280;6549;53.128;8.182;2022-07-17T00:19:32;102599.84;;;10.48;100.00
12969;BME280;6549;53.128;8.182;2022-07-17T00:22:33;102601.44;;;10.49;100.00
12969;BME280;6549;53.128;8.182;2022-07-17T00:25:33;102598.69;;;10.49;100.00
12969;BME280;6549;53.128;8.182;2022-07-17T00:28:34;102591.94;;;10.47;100.00
12969;BME280;6549;53.128;8.182;2022-07-17T00:31:34;102599.25;;;10.43;100.00
12969;BME280;6549;53.128;8.182;2022-07-17T00:34:34;102607.38;;;10.39;100.00
12969;BME280;6549;53.128;8.182;2022-07-17T00:37:39;102610.75;;;10.24;100.00
12969;BME280;6549;53.128;8.182;2022-07-17T00:40:40;102605.06;;;10.08;100.00
12969;BME280;6549;53.128;8.182;2022-07-17T00:43:41;102609.94;;;10.03;100.00
12969;BME280;6549;53.128;8.182;2022-07-17T00:46:42;102611.41;;;10.00;100.00
12969;BME280;6549;53.128;8.182;2022-07-17T00:49:42;102605.00;;;9.96;100.00
12969;BME280;6549;53.128;8.182;2022-07-17T00:52:43;102601.59;;;9.99;100.00
12969;BME280;6549;53.128;8.182;2022-07-17T00:55:45;102609.03;;;9.99;100.00
12969;BME280;6549;53.128;8.182;2022-07-17T00:58:48;102604.88;;;9.92;100.00
12969;BME280;6549;53.128;8.182;2022-07-17T01:01:49;102595.81;;;9.92;100.00
12969;BME280;6549;53.128;8.182;2022-07-17T01:04:49;102609.63;;;10.04;100.00
12969;BME280;6549;53.128;8.182;2022-07-17T01:07:50;102602.53;;;10.03;100.00
12969;BME280;6549;53.128;8.182;2022-07-17T01:10:51;102603.66;;;10.02;100.00
12969;BME280;6549;53.128;8.182;2022-07-17T01:13:51;102606.88;;;10.04;100.00
12969;BME280;6549;53.128;8.182;2022-07-17T01:16:53;102606.31;;;10.11;100.00
12969;BME280;6549;53.128;8.182;2022-07-17T01:19:54;102598.34;;;10.18;100.00
12969;BME280;6549;53.128;8.182;2022-07-17T01:22:54;102602.72;;;10.19;100.00
12969;BME280;6549;53.128;8.182;2022-07-17T01:25:55;102600.78;;;10.19;100.00
12969;BME280;6549;53.128;8.182;2022-07-17T01:28:55;102599.00;;;10.15;100.00
12969;BME280;6549;53.128;8.182;2022-07-17T01:31:56;102598.72;;;10.16;100.00
12969;BME280;6549;53.128;8.182;2022-07-17T01:34:56;102603.53;;;10.19;100.00
12969;BME280;6549;53.128;8.182;2022-07-17T01:37:56;102602.19;;;10.25;100.00
12969;BME280;6549;53.128;8.182;2022-07-17T01:40:57;102597.75;;;10.12;100.00
12969;BME280;6549;53.128;8.182;2022-07-17T01:43:57;102606.88;;;10.04;100.00
12969;BME280;6549;53.128;8.182;2022-07-17T01:46:58;102602.03;;;10.01;100.00
12969;BME280;6549;53.128;8.182;2022-07-17T01:49:59;102605.00;;;9.96;100.00
12969;BME280;6549;53.128;8.182;2022-07-17T01:52:59;102593.75;;;9.89;100.00
12969;BME280;6549;53.128;8.182;2022-07-17T01:56:00;102595.25;;;9.86;100.00
12969;BME280;6549;53.128;8.182;2022-07-17T01:59:00;102600.56;;;9.83;100.00
12969;BME280;6549;53.128;8.182;2022-07-17T02:02:00;102600.00;;;9.77;100.00
12969;BME280;6549;53.128;8.182;2022-07-17T02:05:01;102598.72;;;9.75;100.00
12969;BME280;6549;53.128;8.182;2022-07-17T02:08:02;102600.84;;;9.69;100.00
12969;BME280;6549;53.128;8.182;2022-07-17T02:11:03;102604.81;;;9.60;100.00
12969;BME280;6549;53.128;8.182;2022-07-17T02:14:03;102606.13;;;9.54;100.00
12969;BME280;6549;53.128;8.182;2022-07-17T02:17:04;102609.38;;;9.56;100.00
12969;BME280;6549;53.128;8.182;2022-07-17T02:20:05;102612.75;;;9.53;100.00
12969;BME280;6549;53.128;8.182;2022-07-17T02:23:07;102607.94;;;9.50;100.00
12969;BME280;6549;53.128;8.182;2022-07-17T02:26:07;102612.50;;;9.45;100.00
12969;BME280;6549;53.128;8.182;2022-07-17T02:29:09;102614.75;;;9.43;100.00
12969;BME280;6549;53.128;8.182;2022-07-17T02:32:09;102615.91;;;9.42;100.00
12969;BME280;6549;53.128;8.182;2022-07-17T02:35:10;102618.16;;;9.40;100.00
12969;BME280;6549;53.128;8.182;2022-07-17T02:38:11;102616.75;;;9.34;100.00
12969;BME280;6549;53.128;8.182;2022-07-17T02:41:11;102628.19;;;9.36;100.00
12969;BME280;6549;53.128;8.182;2022-07-17T02:44:12;102627.72;;;9.34;100.00
12969;BME280;6549;53.128;8.182;2022-07-17T02:47:16;102640.66;;;9.25;100.00
12969;BME280;6549;53.128;8.182;2022-07-17T02:50:20;102640.41;;;9.18;100.00
12969;BME280;6549;53.128;8.182;2022-07-17T02:53:21;102641.34;;;9.22;100.00
12969;BME280;6549;53.128;8.182;2022-07-17T02:56:21;102642.63;;;9.25;100.00
12969;BME280;6549;53.128;8.182;2022-07-17T02:59:21;102653.13;;;9.23;100.00
12969;BME280;6549;53.128;8.182;2022-07-17T03:02:22;102651.38;;;9.18;100.00
12969;BME280;6549;53.128;8.182;2022-07-17T03:05:22;102640.13;;;9.11;100.00
12969;BME280;6549;53.128;8.182;2022-07-17T03:08:23;102634.81;;;9.06;100.00
12969;BME280;6549;53.128;8.182;2022-07-17T03:11:23;102636.78;;;8.97;100.00
12969;BME280;6549;53.128;8.182;2022-07-17T03:14:23;102636.47;;;8.90;100.00
12969;BME280;6549;53.128;8.182;2022-07-17T03:17:24;102618.59;;;8.84;100.00
12969;BME280;6549;53.128;8.182;2022-07-17T03:20:24;102606.97;;;8.87;100.00
12969;BME280;6549;53.128;8.182;2022-07-17T03:23:24;102593.75;;;8.89;100.00
12969;BME280;6549;53.128;8.182;2022-07-17T03:26:25;102583.13;;;8.87;100.00
12969;BME280;6549;53.128;8.182;2022-07-17T03:29:25;102583.44;;;8.86;100.00
12969;BME280;6549;53.128;8.182;2022-07-17T03:32:26;102608.59;;;8.88;100.00
12969;BME280;6549;53.128;8.182;2022-07-17T03:35:26;102636.97;;;8.92;100.00
12969;BME280;6549;53.128;8.182;2022-07-17T03:38:26;102663.72;;;8.95;100.00
12969;BME280;6549;53.128;8.182;2022-07-17T03:41:27;102663.84;;;8.98;100.00
12969;BME280;6549;53.128;8.182;2022-07-17T03:44:28;102646.13;;;8.96;100.00
12969;BME280;6549;53.128;8.182;2022-07-17T03:47:28;102637.09;;;8.95;100.00
12969;BME280;6549;53.128;8.182;2022-07-17T03:50:28;102634.19;;;9.00;100.00
12969;BME280;6549;53.128;8.182;2022-07-17T03:53:29;102644.34;;;9.00;100.00
12969;BME280;6549;53.128;8.182;2022-07-17T03:56:29;102643.22;;;9.01;100.00
12969;BME280;6549;53.128;8.182;2022-07-17T03:59:29;102645.16;;;9.00;100.00
12969;BME280;6549;53.128;8.182;2022-07-17T04:02:30;102638.53;;;9.01;100.00
12969;BME280;6549;53.128;8.182;2022-07-17T04:05:30;102637.72;;;9.01;100.00
12969;BME280;6549;53.128;8.182;2022-07-17T04:08:31;102649.16;;;9.03;100.00
12969;BME280;6549;53.128;8.182;2022-07-17T04:11:31;102660.94;;;9.03;100.00
12969;BME280;6549;53.128;8.182;2022-07-17T04:14:31;102653.06;;;9.02;100.00
12969;BME280;6549;53.128;8.182;2022-07-17T04:17:32;102638.53;;;9.01;100.00
12969;BME280;6549;53.128;8.182;2022-07-17T04:20:32;102641.56;;;9.09;100.00
12969;BME280;6549;53.128;8.182;2022-07-17T04:23:34;102643.81;;;9.15;100.00
12969;BME280;6549;53.128;8.182;2022-07-17T04:26:34;102638.88;;;9.29;100.00
12969;BME280;6549;53.128;8.182;2022-07-17T04:29:35;102634.44;;;9.45;100.00
12969;BME280;6549;53.128;8.182;2022-07-17T04:32:35;102651.84;;;9.50;100.00
12969;BME280;6549;53.128;8.182;2022-07-17T04:35:36;102657.78;;;9.52;100.00
12969;BME280;6549;53.128;8.182;2022-07-17T04:38:37;102653.34;;;9.68;100.00
12969;BME280;6549;53.128;8.182;2022-07-17T04:41:37;102649.47;;;9.69;100.00
12969;BME280;6549;53.128;8.182;2022-07-17T04:44:37;102655.91;;;9.73;100.00
12969;BME280;6549;53.128;8.182;2022-07-17T04:47:38;102655.22;;;9.76;100.00
12969;BME280;6549;53.128;8.182;2022-07-17T04:50:38;102659.53;;;9.85;100.00
12969;BME280;6549;53.128;8.182;2022-07-17T04:53:38;102662.53;;;9.92;100.00
12969;BME280;6549;53.128;8.182;2022-07-17T04:56:39;102662.25;;;10.06;100.00
12969;BME280;6549;53.128;8.182;2022-07-17T04:59:39;102652.03;;;10.15;100.00
12969;BME280;6549;53.128;8.182;2022-07-17T05:02:39;102643.72;;;10.24;100.00
12969;BME280;6549;53.128;8.182;2022-07-17T05:05:40;102646.38;;;10.32;100.00
12969;BME280;6549;53.128;8.182;2022-07-17T05:08:40;102641.00;;;10.36;100.00
12969;BME280;6549;53.128;8.182;2022-07-17T05:11:41;102634.38;;;10.37;100.00
12969;BME280;6549;53.128;8.182;2022-07-17T05:14:41;102637.00;;;10.33;100.00
12969;BME280;6549;53.128;8.182;2022-07-17T05:17:42;102650.53;;;10.39;100.00
12969;BME280;6549;53.128;8.182;2022-07-17T05:20:42;102648.41;;;10.44;100.00
12969;BME280;6549;53.128;8.182;2022-07-17T05:23:42;102640.72;;;10.50;100.00
12969;BME280;6549;53.128;8.182;2022-07-17T05:26:43;102630.91;;;10.61;100.00
12969;BME280;6549;53.128;8.182;2022-07-17T05:29:43;102629.31;;;10.72;100.00
12969;BME280;6549;53.128;8.182;2022-07-17T05:32:43;102622.91;;;10.80;100.00
12969;BME280;6549;53.128;8.182;2022-07-17T05:35:44;102633.84;;;10.89;100.00
12969;BME280;6549;53.128;8.182;2022-07-17T05:38:44;102630.03;;;10.93;100.00
12969;BME280;6549;53.128;8.182;2022-07-17T05:41:44;102623.88;;;11.08;100.00
12969;BME280;6549;53.128;8.182;2022-07-17T05:44:45;102633.28;;;11.32;100.00
12969;BME280;6549;53.128;8.182;2022-07-17T05:47:45;102636.66;;;11.65;100.00
12969;BME280;6549;53.128;8.182;2022-07-17T05:50:45;102633.00;;;11.85;100.00
12969;BME280;6549;53.128;8.182;2022-07-17T05:53:46;102630.75;;;12.03;100.00
12969;BME280;6549;53.128;8.182;2022-07-17T05:56:46;102639.97;;;12.23;100.00
12969;BME280;6549;53.128;8.182;2022-07-17T05:59:46;102639.66;;;12.40;100.00
12969;BME280;6549;53.128;8.182;2022-07-17T06:02:47;102635.63;;;12.65;100.00
12969;BME280;6549;53.128;8.182;2022-07-17T06:05:51;102642.06;;;13.16;100.00
12969;BME280;6549;53.128;8.182;2022-07-17T06:08:51;102651.84;;;13.45;100.00
12969;BME280;6549;53.128;8.182;2022-07-17T06:11:52;102652.97;;;13.60;100.00
12969;BME280;6549;53.128;8.182;2022-07-17T06:14:55;102651.66;;;13.88;100.00
12969;BME280;6549;53.128;8.182;2022-07-17T06:18:01;102651.00;;;14.14;100.00
12969;BME280;6549;53.128;8.182;2022-07-17T06:21:01;102643.31;;;14.65;100.00
12969;BME280;6549;53.128;8.182;2022-07-17T06:24:01;102652.19;;;15.20;100.00
12969;BME280;6549;53.128;8.182;2022-07-17T06:27:02;102676.31;;;15.68;100.00
12969;BME280;6549;53.128;8.182;2022-07-17T06:30:02;102675.63;;;16.05;100.00
12969;BME280;6549;53.128;8.182;2022-07-17T06:33:03;102685.81;;;16.60;100.00
12969;BME280;6549;53.128;8.182;2022-07-17T06:36:03;102698.19;;;17.03;100.00
12969;BME280;6549;53.128;8.182;2022-07-17T06:39:04;102699.00;;;17.55;100.00
12969;BME280;6549;53.128;8.182;2022-07-17T06:42:04;102699.69;;;18.00;100.00
12969;BME280;6549;53.128;8.182;2022-07-17T06:45:05;102702.63;;;18.35;100.00
12969;BME280;6549;53.128;8.182;2022-07-17T06:48:06;102703.97;;;18.76;100.00
12969;BME280;6549;53.128;8.182;2022-07-17T06:51:06;102699.25;;;19.02;100.00
12969;BME280;6549;53.128;8.182;2022-07-17T06:54:06;102696.81;;;18.75;100.00
12969;BME280;6549;53.128;8.182;2022-07-17T06:57:07;102694.41;;;18.67;100.00
12969;BME280;6549;53.128;8.182;2022-07-17T07:00:08;102701.03;;;18.30;100.00
12969;BME280;6549;53.128;8.182;2022-07-17T07:03:09;102710.50;;;18.15;100.00
12969;BME280;6549;53.128;8.182;2022-07-17T07:06:09;102710.44;;;18.05;100.00
12969;BME280;6549;53.128;8.182;2022-07-17T07:09:09;102713.13;;;17.87;100.00
12969;BME280;6549;53.128;8.182;2022-07-17T07:12:13;102721.59;;;17.53;100.00
12969;BME280;6549;53.128;8.182;2022-07-17T07:15:13;102718.41;;;17.48;100.00
12969;BME280;6549;53.128;8.182;2022-07-17T07:18:14;102729.38;;;17.30;100.00
12969;BME280;6549;53.128;8.182;2022-07-17T07:21:14;102730.53;;;17.77;100.00
12969;BME280;6549;53.128;8.182;2022-07-17T07:24:14;102722.66;;;18.72;100.00
12969;BME280;6549;53.128;8.182;2022-07-17T07:27:15;102725.16;;;19.38;100.00
12969;BME280;6549;53.128;8.182;2022-07-17T07:30:15;102729.13;;;19.44;100.00
12969;BME280;6549;53.128;8.182;2022-07-17T07:33:16;102726.34;;;19.37;100.00
12969;BME280;6549;53.128;8.182;2022-07-17T07:36:16;102737.91;;;19.53;100.00
12969;BME280;6549;53.128;8.182;2022-07-17T07:39:16;102736.28;;;19.66;100.00
12969;BME280;6549;53.128;8.182;2022-07-17T07:42:17;102735.09;;;19.74;100.00
12969;BME280;6549;53.128;8.182;2022-07-17T07:45:17;102735.50;;;19.72;100.00
12969;BME280;6549;53.128;8.182;2022-07-17T07:48:18;102732.31;;;19.67;98.95
12969;BME280;6549;53.128;8.182;2022-07-17T07:51:18;102733.88;;;19.40;99.95
12969;BME280;6549;53.128;8.182;2022-07-17T07:54:18;102729.09;;;19.29;97.09
12969;BME280;6549;53.128;8.182;2022-07-17T07:57:19;102728.72;;;19.13;99.22
12969;BME280;6549;53.128;8.182;2022-07-17T08:00:19;102731.50;;;19.13;99.50
12969;BME280;6549;53.128;8.182;2022-07-17T08:03:19;102730.31;;;19.07;99.22
12969;BME280;6549;53.128;8.182;2022-07-17T08:06:20;102733.06;;;19.00;99.51
12969;BME280;6549;53.128;8.182;2022-07-17T08:09:20;102738.66;;;19.07;98.71
12969;BME280;6549;53.128;8.182;2022-07-17T08:12:21;102738.25;;;19.12;100.00
12969;BME280;6549;53.128;8.182;2022-07-17T08:15:22;102731.09;;;19.25;96.52
12969;BME280;6549;53.128;8.182;2022-07-17T08:18:23;102731.53;;;19.45;95.95
12969;BME280;6549;53.128;8.182;2022-07-17T08:21:23;102722.38;;;19.55;91.39
12969;BME280;6549;53.128;8.182;2022-07-17T08:24:23;102731.50;;;19.84;93.88
12969;BME280;6549;53.128;8.182;2022-07-17T08:27:24;102732.63;;;20.08;89.36
12969;BME280;6549;53.128;8.182;2022-07-17T08:30:24;102742.19;;;20.17;83.21
12969;BME280;6549;53.128;8.182;2022-07-17T08:33:24;102744.78;;;20.67;90.15
12969;BME280;6549;53.128;8.182;2022-07-17T08:36:25;102748.31;;;20.78;82.33
12969;BME280;6549;53.128;8.182;2022-07-17T08:39:25;102743.56;;;21.34;74.79
12969;BME280;6549;53.128;8.182;2022-07-17T08:42:25;102755.19;;;21.73;80.22
12969;BME280;6549;53.128;8.182;2022-07-17T08:45:32;102740.84;;;22.12;70.99
12969;BME280;6549;53.128;8.182;2022-07-17T08:48:33;102750.75;;;22.20;68.56
12969;BME280;6549;53.128;8.182;2022-07-17T08:51:34;102749.38;;;21.98;63.75
12969;BME280;6549;53.128;8.182;2022-07-17T08:54:35;102742.16;;;22.01;63.34
12969;BME280;6549;53.128;8.182;2022-07-17T08:57:37;102744.72;;;21.40;65.97
12969;BME280;6549;53.128;8.182;2022-07-17T09:00:39;102748.53;;;21.60;66.59
12969;BME280;6549;53.128;8.182;2022-07-17T09:03:39;102758.81;;;21.70;66.03
12969;BME280;6549;53.128;8.182;2022-07-17T09:06:41;102768.84;;;21.20;64.72
12969;BME280;6549;53.128;8.182;2022-07-17T09:09:49;102753.75;;;21.58;67.50
12969;BME280;6549;53.128;8.182;2022-07-17T09:12:50;102744.53;;;22.36;65.00
12969;BME280;6549;53.128;8.182;2022-07-17T09:15:53;102744.56;;;22.97;59.67
12969;BME280;6549;53.128;8.182;2022-07-17T09:18:53;102742.88;;;23.26;56.02
12969;BME280;6549;53.128;8.182;2022-07-17T09:25:09;102735.81;;;22.91;54.30
12969;BME280;6549;53.128;8.182;2022-07-17T09:28:12;102730.28;;;22.23;52.45
12969;BME280;6549;53.128;8.182;2022-07-17T09:31:26;102725.38;;;22.34;63.26
12969;BME280;6549;53.128;8.182;2022-07-17T09:34:27;102732.50;;;23.00;55.43
12969;BME280;6549;53.128;8.182;2022-07-17T09:37:29;102730.31;;;23.34;54.44
12969;BME280;6549;53.128;8.182;2022-07-17T09:40:29;102744.25;;;23.64;49.84
12969;BME280;6549;53.128;8.182;2022-07-17T09:44:14;102743.63;;;23.30;49.78
12969;BME280;6549;53.128;8.182;2022-07-17T09:47:16;102733.63;;;23.76;52.84
12969;BME280;6549;53.128;8.182;2022-07-17T09:50:18;102733.34;;;24.33;49.79
12969;BME280;6549;53.128;8.182;2022-07-17T09:53:18;102731.75;;;24.51;48.27
12969;BME280;6549;53.128;8.182;2022-07-17T09:56:20;102743.63;;;23.77;51.28
12969;BME280;6549;53.128;8.182;2022-07-17T09:59:21;102733.88;;;23.85;48.40
12969;BME280;6549;53.128;8.182;2022-07-17T10:02:22;102729.31;;;24.34;48.78
12969;BME280;6549;53.128;8.182;2022-07-17T10:05:23;102725.44;;;23.85;49.13
12969;BME280;6549;53.128;8.182;2022-07-17T10:08:24;102724.47;;;23.25;51.79
12969;BME280;6549;53.128;8.182;2022-07-17T10:11:27;102726.03;;;23.03;53.63
12969;BME280;6549;53.128;8.182;2022-07-17T10:14:27;102729.44;;;22.60;52.98
12969;BME280;6549;53.128;8.182;2022-07-17T10:17:28;102735.25;;;22.43;52.90
12969;BME280;6549;53.128;8.182;2022-07-17T10:20:28;102734.22;;;22.90;51.35
12969;BME280;6549;53.128;8.182;2022-07-17T10:23:29;102734.34;;;22.83;51.44
12969;BME280;6549;53.128;8.182;2022-07-17T10:26:37;102734.75;;;23.58;50.00
12969;BME280;6549;53.128;8.182;2022-07-17T10:29:38;102729.69;;;24.12;49.29
12969;BME280;6549;53.128;8.182;2022-07-17T10:32:50;102738.66;;;24.47;46.32
12969;BME280;6549;53.128;8.182;2022-07-17T10:35:51;102720.50;;;24.51;46.34
12969;BME280;6549;53.128;8.182;2022-07-17T10:38:51;102724.28;;;23.59;44.64
12969;BME280;6549;53.128;8.182;2022-07-17T10:42:00;102712.66;;;23.60;47.89
12969;BME280;6549;53.128;8.182;2022-07-17T10:48:16;102712.25;;;21.94;51.03
12969;BME280;6549;53.128;8.182;2022-07-17T10:51:17;102723.19;;;23.29;49.40
12969;BME280;6549;53.128;8.182;2022-07-17T10:54:19;102709.78;;;23.64;50.18
12969;BME280;6549;53.128;8.182;2022-07-17T10:57:20;102709.94;;;24.20;45.62
12969;BME280;6549;53.128;8.182;2022-07-17T11:00:20;102709.06;;;24.42;45.61
12969;BME280;6549;53.128;8.182;2022-07-17T11:03:20;102722.44;;;24.90;44.25
12969;BME280;6549;53.128;8.182;2022-07-17T11:09:21;102719.81;;;24.99;44.23
12969;BME280;6549;53.128;8.182;2022-07-17T11:12:30;102715.16;;;25.09;42.28
12969;BME280;6549;53.128;8.182;2022-07-17T11:15:37;102711.50;;;24.40;44.21
12969;BME280;6549;53.128;8.182;2022-07-17T11:18:45;102709.69;;;24.30;45.88
12969;BME280;6549;53.128;8.182;2022-07-17T11:21:47;102714.88;;;24.87;45.34
12969;BME280;6549;53.128;8.182;2022-07-17T11:24:48;102721.38;;;25.00;42.45
12969;BME280;6549;53.128;8.182;2022-07-17T11:27:49;102711.63;;;25.05;41.87
12969;BME280;6549;53.128;8.182;2022-07-17T11:30:49;102707.94;;;25.08;42.33
12969;BME280;6549;53.128;8.182;2022-07-17T11:33:53;102720.34;;;25.11;41.71
12969;BME280;6549;53.128;8.182;2022-07-17T11:37:02;102717.34;;;25.34;39.14
12969;BME280;6549;53.128;8.182;2022-07-17T11:40:04;102715.22;;;25.54;39.16
12969;BME280;6549;53.128;8.182;2022-07-17T11:43:04;102705.66;;;25.80;39.84
12969;BME280;6549;53.128;8.182;2022-07-17T11:46:06;102701.75;;;26.19;39.40
12969;BME280;6549;53.128;8.182;2022-07-17T11:49:07;102714.38;;;25.86;40.70
12969;BME280;6549;53.128;8.182;2022-07-17T11:55:09;102697.47;;;25.57;42.03
12969;BME280;6549;53.128;8.182;2022-07-17T11:58:10;102699.41;;;25.60;41.18
12969;BME280;6549;53.128;8.182;2022-07-17T12:01:12;102700.13;;;25.77;40.80
12969;BME280;6549;53.128;8.182;2022-07-17T12:04:14;102692.00;;;25.66;39.25
12969;BME280;6549;53.128;8.182;2022-07-17T12:07:14;102685.03;;;25.71;40.83
12969;BME280;6549;53.128;8.182;2022-07-17T12:10:17;102704.22;;;26.17;40.10
12969;BME280;6549;53.128;8.182;2022-07-17T12:13:19;102693.09;;;25.40;41.79
12969;BME280;6549;53.128;8.182;2022-07-17T12:16:26;102686.22;;;25.86;40.12
12969;BME280;6549;53.128;8.182;2022-07-17T12:19:27;102684.75;;;25.94;39.53
12969;BME280;6549;53.128;8.182;2022-07-17T12:22:27;102686.75;;;26.10;39.59
12969;BME280;6549;53.128;8.182;2022-07-17T12:25:29;102676.41;;;26.19;39.03
12969;BME280;6549;53.128;8.182;2022-07-17T12:28:29;102675.13;;;26.08;38.23
12969;BME280;6549;53.128;8.182;2022-07-17T12:31:30;102686.69;;;26.26;39.93
12969;BME280;6549;53.128;8.182;2022-07-17T12:34:35;102679.06;;;25.98;38.06
12969;BME280;6549;53.128;8.182;2022-07-17T12:37:36;102680.75;;;26.08;38.46
12969;BME280;6549;53.128;8.182;2022-07-17T12:40:36;102679.59;;;25.64;39.45
12969;BME280;6549;53.128;8.182;2022-07-17T12:43:36;102675.72;;;25.86;40.90
12969;BME280;6549;53.128;8.182;2022-07-17T12:46:37;102666.03;;;25.59;40.70
12969;BME280;6549;53.128;8.182;2022-07-17T12:49:37;102663.63;;;26.02;39.17
12969;BME280;6549;53.128;8.182;2022-07-17T12:52:39;102661.00;;;26.49;38.50
12969;BME280;6549;53.128;8.182;2022-07-17T12:55:39;102652.09;;;26.38;37.43
12969;BME280;6549;53.128;8.182;2022-07-17T12:58:40;102654.13;;;26.88;38.90
12969;BME280;6549;53.128;8.182;2022-07-17T13:01:40;102651.31;;;26.50;38.33
12969;BME280;6549;53.128;8.182;2022-07-17T13:04:41;102644.06;;;26.74;37.91
12969;BME280;6549;53.128;8.182;2022-07-17T13:07:41;102646.50;;;26.09;38.25
12969;BME280;6549;53.128;8.182;2022-07-17T13:10:41;102648.50;;;26.63;38.80
12969;BME280;6549;53.128;8.182;2022-07-17T13:13:42;102640.25;;;26.81;38.53
12969;BME280;6549;53.128;8.182;2022-07-17T13:16:42;102649.69;;;27.00;37.99
12969;BME280;6549;53.128;8.182;2022-07-17T13:19:42;102637.53;;;27.03;38.71
12969;BME280;6549;53.128;8.182;2022-07-17T13:22:43;102641.28;;;26.62;38.25
12969;BME280;6549;53.128;8.182;2022-07-17T13:25:43;102645.44;;;26.57;38.34
12969;BME280;6549;53.128;8.182;2022-07-17T13:28:43;102637.25;;;26.09;39.97
12969;BME280;6549;53.128;8.182;2022-07-17T13:31:44;102634.72;;;26.27;38.97
12969;BME280;6549;53.128;8.182;2022-07-17T13:34:44;102639.34;;;26.59;39.30
12969;BME280;6549;53.128;8.182;2022-07-17T13:37:45;102636.28;;;26.78;38.80
12969;BME280;6549;53.128;8.182;2022-07-17T13:40:45;102642.53;;;26.86;37.50
12969;BME280;6549;53.128;8.182;2022-07-17T13:43:45;102647.78;;;26.84;37.27
12969;BME280;6549;53.128;8.182;2022-07-17T13:46:46;102637.22;;;26.88;38.38
12969;BME280;6549;53.128;8.182;2022-07-17T13:49:46;102646.00;;;27.03;37.44
12969;BME280;6549;53.128;8.182;2022-07-17T13:52:47;102652.53;;;26.87;39.16
12969;BME280;6549;53.128;8.182;2022-07-17T13:55:47;102641.50;;;26.67;38.98
12969;BME280;6549;53.128;8.182;2022-07-17T13:58:48;102637.53;;;26.27;39.40
12969;BME280;6549;53.128;8.182;2022-07-17T14:01:48;102636.31;;;26.41;40.17
12969;BME280;6549;53.128;8.182;2022-07-17T14:04:49;102627.72;;;26.69;39.19
12969;BME280;6549;53.128;8.182;2022-07-17T14:07:49;102626.03;;;26.85;38.88
12969;BME280;6549;53.128;8.182;2022-07-17T14:10:50;102627.03;;;27.03;37.95
12969;BME280;6549;53.128;8.182;2022-07-17T14:13:50;102637.03;;;27.17;38.66
12969;BME280;6549;53.128;8.182;2022-07-17T14:16:51;102637.53;;;27.03;37.46
12969;BME280;6549;53.128;8.182;2022-07-17T14:19:52;102631.53;;;27.01;38.07
12969;BME280;6549;53.128;8.182;2022-07-17T14:22:52;102625.28;;;27.18;38.37
12969;BME280;6549;53.128;8.182;2022-07-17T14:25:52;102629.94;;;27.00;37.85
12969;BME280;6549;53.128;8.182;2022-07-17T14:28:53;102629.50;;;27.01;37.23
12969;BME280;6549;53.128;8.182;2022-07-17T14:31:53;102632.19;;;27.05;38.43
12969;BME280;6549;53.128;8.182;2022-07-17T14:34:54;102622.31;;;27.22;37.49
12969;BME280;6549;53.128;8.182;2022-07-17T14:37:54;102625.19;;;27.09;37.47
12969;BME280;6549;53.128;8.182;2022-07-17T14:40:55;102625.22;;;26.84;38.12
12969;BME280;6549;53.128;8.182;2022-07-17T14:43:55;102613.63;;;26.69;38.14
12969;BME280;6549;53.128;8.182;2022-07-17T14:46:59;102608.72;;;25.94;39.40
12969;BME280;6549;53.128;8.182;2022-07-17T14:49:59;102596.13;;;26.11;40.12
12969;BME280;6549;53.128;8.182;2022-07-17T14:53:00;102595.25;;;26.52;38.26
12969;BME280;6549;53.128;8.182;2022-07-17T14:56:00;102599.31;;;26.26;39.68
12969;BME280;6549;53.128;8.182;2022-07-17T14:59:01;102592.44;;;25.73;40.58
12969;BME280;6549;53.128;8.182;2022-07-17T15:02:01;102593.25;;;25.73;41.52
12969;BME280;6549;53.128;8.182;2022-07-17T15:05:02;102586.13;;;25.69;41.22
12969;BME280;6549;53.128;8.182;2022-07-17T15:08:02;102592.34;;;25.76;41.69
12969;BME280;6549;53.128;8.182;2022-07-17T15:11:03;102577.03;;;25.77;41.60
12969;BME280;6549;53.128;8.182;2022-07-17T15:14:04;102583.81;;;25.92;41.21
12969;BME280;6549;53.128;8.182;2022-07-17T15:17:04;102577.59;;;25.85;41.21
12969;BME280;6549;53.128;8.182;2022-07-17T15:20:05;102576.06;;;25.26;41.82
12969;BME280;6549;53.128;8.182;2022-07-17T15:23:05;102574.59;;;25.05;42.81
12969;BME280;6549;53.128;8.182;2022-07-17T15:26:05;102582.91;;;25.25;42.83
12969;BME280;6549;53.128;8.182;2022-07-17T15:29:06;102579.13;;;25.61;42.27
12969;BME280;6549;53.128;8.182;2022-07-17T15:32:06;102574.44;;;25.70;42.86
12969;BME280;6549;53.128;8.182;2022-07-17T15:35:07;102570.44;;;25.26;43.62
12969;BME280;6549;53.128;8.182;2022-07-17T15:38:07;102577.81;;;25.20;44.48
12969;BME280;6549;53.128;8.182;2022-07-17T15:41:08;102569.97;;;24.99;44.22
12969;BME280;6549;53.128;8.182;2022-07-17T15:44:08;102580.34;;;24.86;44.68
12969;BME280;6549;53.128;8.182;2022-07-17T15:47:09;102569.59;;;25.13;43.16
12969;BME280;6549;53.128;8.182;2022-07-17T15:50:09;102575.81;;;25.21;43.05
12969;BME280;6549;53.128;8.182;2022-07-17T15:53:09;102569.00;;;25.34;42.09
12969;BME280;6549;53.128;8.182;2022-07-17T15:56:10;102562.03;;;25.68;42.04
12969;BME280;6549;53.128;8.182;2022-07-17T15:59:11;102559.81;;;25.88;40.83
12969;BME280;6549;53.128;8.182;2022-07-17T16:02:11;102558.19;;;25.62;42.21
12969;BME280;6549;53.128;8.182;2022-07-17T16:05:11;102553.28;;;25.49;41.13
12969;BME280;6549;53.128;8.182;2022-07-17T16:08:12;102550.78;;;25.39;41.25